createdAt,value
2018-06-10T00:01:05.535Z,18.23
2018-06-10T00:03:39.836Z,21.27
2018-06-10T00:06:14.107Z,19.23
2018-06-10T00:08:48.410Z,20.20
2018-06-10T00:11:22.825Z,19.47
2018-06-10T00:13:57.135Z,21.17
2018-06-10T00:16:31.387Z,21.53
2018-06-10T00:19:05.619Z,20.80
2018-06-10T00:21:39.745Z,24.00
2018-06-10T00:24:13.993Z,24.67
2018-06-10T00:26:48.329Z,20.70
2018-06-10T00:29:23.079Z,24.57
2018-06-10T00:31:57.230Z,23.57
2018-06-10T00:34:31.438Z,27.33
2018-06-10T00:37:05.892Z,26.87
2018-06-10T00:39:40.144Z,29.70
2018-06-10T00:42:14.451Z,28.53
2018-06-10T00:44:48.746Z,24.07
2018-06-10T00:47:23.014Z,28.80
2018-06-10T00:49:57.342Z,27.70
2018-06-10T00:52:31.642Z,27.47
2018-06-10T00:55:05.902Z,29.63
2018-06-10T00:57:40.194Z,28.47
2018-06-10T01:00:14.535Z,28.80
2018-06-10T01:02:48.822Z,29.77
2018-06-10T01:05:23.117Z,31.13
2018-06-10T01:07:57.398Z,30.73
2018-06-10T01:10:31.762Z,26.63
2018-06-10T01:13:06.082Z,30.67
2018-06-10T01:15:40.501Z,28.70
2018-06-10T01:18:14.750Z,28.10
2018-06-10T01:20:49.030Z,33.80
2018-06-10T01:23:23.335Z,30.40
2018-06-10T01:25:57.535Z,30.17
2018-06-10T01:28:31.868Z,30.63
2018-06-10T01:31:06.227Z,27.97
2018-06-10T01:33:40.529Z,33.37
2018-06-10T01:36:14.834Z,29.77
2018-06-10T01:38:49.129Z,26.40
2018-06-10T01:41:23.309Z,30.60
2018-06-10T01:43:57.452Z,30.97
2018-06-10T01:46:31.638Z,29.67
2018-06-10T01:49:05.940Z,31.27
2018-06-10T01:51:40.334Z,28.83
2018-06-10T01:54:14.562Z,30.33
2018-06-10T01:56:48.958Z,26.47
2018-06-10T01:59:23.092Z,30.07
2018-06-10T02:01:57.270Z,27.23
2018-06-10T02:04:31.498Z,27.10
2018-06-10T02:07:05.723Z,26.93
2018-06-10T02:09:40.108Z,30.03
2018-06-10T02:12:14.398Z,27.07
2018-06-10T02:14:48.698Z,24.93
2018-06-10T02:17:23.010Z,28.73
2018-06-10T02:19:57.334Z,32.30
2018-06-10T02:22:31.601Z,27.97
2018-06-10T02:25:05.874Z,29.87
2018-06-10T02:27:40.234Z,26.13
2018-06-10T02:30:14.406Z,25.73
2018-06-10T02:32:48.799Z,25.97
2018-06-10T02:35:22.940Z,22.90
2018-06-10T02:37:57.226Z,24.80
2018-06-10T02:40:31.510Z,24.93
2018-06-10T02:43:05.930Z,25.20
2018-06-10T02:45:40.049Z,29.33
2018-06-10T02:48:14.247Z,28.10
2018-06-10T02:50:48.414Z,24.03
2018-06-10T02:53:22.880Z,27.23
2018-06-10T02:55:57.125Z,22.90
2018-06-10T02:58:31.405Z,25.23
2018-06-10T03:01:05.654Z,23.70
2018-06-10T03:03:39.918Z,28.13
2018-06-10T03:06:14.238Z,25.47
2018-06-10T03:08:48.712Z,24.07
2018-06-10T03:11:23.212Z,24.83
2018-06-10T03:13:57.467Z,26.43
2018-06-10T03:16:31.803Z,22.90
2018-06-10T03:19:05.995Z,20.97
2018-06-10T03:21:40.251Z,21.70
2018-06-10T03:24:14.541Z,23.63
2018-06-10T03:26:48.912Z,23.90
2018-06-10T03:29:23.240Z,21.93
2018-06-10T03:31:57.505Z,24.67
2018-06-10T03:34:31.819Z,24.63
2018-06-10T03:37:06.106Z,22.33
2018-06-10T03:39:40.397Z,24.47
2018-06-10T03:42:14.576Z,25.77
2018-06-10T03:44:48.859Z,25.90
2018-06-10T03:47:23.207Z,27.10
2018-06-10T03:49:57.394Z,24.97
2018-06-10T03:52:31.814Z,30.60
2018-06-10T03:55:06.051Z,26.57
2018-06-10T03:57:40.357Z,27.57
2018-06-10T04:00:14.687Z,25.30
2018-06-10T04:02:49.042Z,23.67
2018-06-10T04:05:23.187Z,28.90
2018-06-10T04:07:57.418Z,28.87
2018-06-10T04:10:31.855Z,27.23
2018-06-10T04:13:06.160Z,25.77
2018-06-10T04:15:40.325Z,29.60
2018-06-10T04:18:14.642Z,28.10
2018-06-10T04:20:48.919Z,30.10
2018-06-10T04:23:23.351Z,29.00
2018-06-10T04:25:57.574Z,34.07
2018-06-10T04:28:31.975Z,33.30
2018-06-10T04:31:06.283Z,34.43
2018-06-10T04:33:40.451Z,28.37
2018-06-10T04:36:14.650Z,29.93
2018-06-10T04:38:49.003Z,31.73
2018-06-10T04:41:23.424Z,31.10
2018-06-10T04:43:57.762Z,31.33
2018-06-10T04:46:31.954Z,29.03
2018-06-10T04:49:06.283Z,29.97
2018-06-10T04:51:40.562Z,27.73
2018-06-10T04:54:14.883Z,32.13
2018-06-10T04:56:49.152Z,31.67
2018-06-10T04:59:23.592Z,36.60
2018-06-10T05:01:57.970Z,31.63
2018-06-10T05:04:32.290Z,31.37
2018-06-10T05:07:06.580Z,37.20
2018-06-10T05:09:40.979Z,30.27
2018-06-10T05:12:15.266Z,37.53
2018-06-10T05:14:49.604Z,32.43
2018-06-10T05:17:23.794Z,33.13
2018-06-10T05:19:58.054Z,33.77
2018-06-10T05:22:32.380Z,33.03
2018-06-10T05:25:06.563Z,34.13
2018-06-10T05:27:40.898Z,38.27
2018-06-10T05:30:15.047Z,33.60
2018-06-10T05:32:49.294Z,29.80
2018-06-10T05:35:23.558Z,31.77
2018-06-10T05:37:57.827Z,34.30
2018-06-10T05:40:32.053Z,35.03
2018-06-10T05:43:06.367Z,35.23
2018-06-10T05:45:40.670Z,35.93
2018-06-10T05:48:14.949Z,39.13
2018-06-10T05:50:49.267Z,34.70
2018-06-10T05:53:23.460Z,33.40
2018-06-10T05:55:57.663Z,36.63
2018-06-10T05:58:31.962Z,31.00
2018-06-10T06:01:06.226Z,34.50
2018-06-10T06:03:40.394Z,36.00
2018-06-10T06:06:14.749Z,36.03
2018-06-10T06:08:49.179Z,36.37
2018-06-10T06:11:23.472Z,33.53
2018-06-10T06:13:57.846Z,32.60
2018-06-10T06:16:32.124Z,33.37
2018-06-10T06:19:06.366Z,34.57
2018-06-10T06:21:40.582Z,40.63
2018-06-10T06:24:14.780Z,34.97
2018-06-10T06:26:49.147Z,36.03
2018-06-10T06:29:23.520Z,33.57
2018-06-10T06:31:57.872Z,34.30
2018-06-10T06:34:32.306Z,36.00
2018-06-10T06:37:06.546Z,33.23
2018-06-10T06:39:40.859Z,35.27
2018-06-10T06:42:15.059Z,32.80
2018-06-10T06:44:49.334Z,34.93
2018-06-10T06:47:23.524Z,36.93
2018-06-10T06:49:57.838Z,33.70
2018-06-10T06:52:32.302Z,35.13
2018-06-10T06:55:06.523Z,37.63
2018-06-10T06:57:40.970Z,35.93
2018-06-10T07:00:15.288Z,31.97
2018-06-10T07:02:49.586Z,34.53
2018-06-10T07:05:23.760Z,29.30
2018-06-10T07:07:58.060Z,31.20
2018-06-10T07:10:32.396Z,31.67
2018-06-10T07:13:06.733Z,34.77
2018-06-10T07:15:41.010Z,33.67
2018-06-10T07:18:15.347Z,35.13
2018-06-10T07:20:49.658Z,33.57
2018-06-10T07:23:24.007Z,30.40
2018-06-10T07:25:58.350Z,33.47
2018-06-10T07:28:32.703Z,32.60
2018-06-10T07:31:06.878Z,37.40
2018-06-10T07:33:41.238Z,35.10
2018-06-10T07:36:15.538Z,33.23
2018-06-10T07:38:49.812Z,32.77
2018-06-10T07:41:23.996Z,42.50
2018-06-10T07:43:58.145Z,32.57
2018-06-10T07:46:32.446Z,32.33
2018-06-10T07:49:06.804Z,33.63
2018-06-10T07:51:40.978Z,29.67
2018-06-10T07:54:15.311Z,36.33
2018-06-10T07:56:49.720Z,30.63
2018-06-10T07:59:23.923Z,26.20
2018-06-10T08:01:58.042Z,32.47
2018-06-10T08:04:32.411Z,29.63
2018-06-10T08:07:06.814Z,28.53
2018-06-10T08:09:41.114Z,30.37
2018-06-10T08:12:15.495Z,28.10
2018-06-10T08:14:49.933Z,33.23
2018-06-10T08:17:24.159Z,28.83
2018-06-10T08:19:58.323Z,30.70
2018-06-10T08:22:32.558Z,31.20
2018-06-10T08:25:07.019Z,36.87
2018-06-10T08:27:41.302Z,28.60
2018-06-10T08:30:16.094Z,31.70
2018-06-10T08:32:50.363Z,29.70
2018-06-10T08:35:24.571Z,29.30
2018-06-10T08:37:58.879Z,29.90
2018-06-10T08:40:33.244Z,30.17
2018-06-10T08:43:07.532Z,29.37
2018-06-10T08:45:41.838Z,31.33
2018-06-10T08:48:16.117Z,31.73
2018-06-10T08:50:51.022Z,28.97
2018-06-10T08:53:26.388Z,30.17
2018-06-10T08:56:01.117Z,29.27
2018-06-10T08:58:35.902Z,34.37
2018-06-10T09:01:10.093Z,32.27
2018-06-10T09:03:44.275Z,29.67
2018-06-10T09:06:20.517Z,29.57
2018-06-10T09:08:54.969Z,31.07
2018-06-10T09:11:29.179Z,29.83
2018-06-10T09:14:04.354Z,33.30
2018-06-10T09:16:38.725Z,32.30
2018-06-10T09:19:13.490Z,30.73
2018-06-10T09:21:47.975Z,29.70
2018-06-10T09:24:22.442Z,27.33
2018-06-10T09:26:56.799Z,27.93
2018-06-10T09:29:31.037Z,29.93
2018-06-10T09:32:05.344Z,28.23
2018-06-10T09:34:39.682Z,27.97
2018-06-10T09:37:14.000Z,23.80
2018-06-10T09:39:48.281Z,30.53
2018-06-10T09:42:22.478Z,25.80
2018-06-10T09:44:56.718Z,25.03
2018-06-10T09:47:31.054Z,24.77
2018-06-10T09:50:05.343Z,27.37
2018-06-10T09:52:40.149Z,29.73
2018-06-10T09:55:14.443Z,29.07
2018-06-10T09:57:48.654Z,20.27
2018-06-10T10:00:24.468Z,22.53
2018-06-10T10:02:59.116Z,22.60
2018-06-10T10:05:34.235Z,23.50
2018-06-10T10:08:08.694Z,21.63
2018-06-10T10:10:43.014Z,24.13
2018-06-10T10:13:17.322Z,22.50
2018-06-10T10:15:51.602Z,26.57
2018-06-10T10:18:25.854Z,20.70
2018-06-10T10:21:00.055Z,21.23
2018-06-10T10:23:34.338Z,21.97
2018-06-10T10:26:08.704Z,20.30
2018-06-10T10:28:43.070Z,19.90
2018-06-10T10:31:17.264Z,22.90
2018-06-10T10:33:51.636Z,20.07
2018-06-10T10:36:25.802Z,18.83
2018-06-10T10:39:00.159Z,21.93
2018-06-10T10:41:34.515Z,20.27
2018-06-10T10:44:08.938Z,23.47
2018-06-10T10:46:43.224Z,21.30
2018-06-10T10:49:17.378Z,21.00
2018-06-10T10:51:51.726Z,22.33
2018-06-10T10:54:26.153Z,21.70
2018-06-10T10:57:00.459Z,21.90
2018-06-10T10:59:34.779Z,25.07
2018-06-10T11:02:08.950Z,20.93
2018-06-10T11:04:43.161Z,24.13
2018-06-10T11:07:17.482Z,21.43
2018-06-10T11:09:51.914Z,22.70
2018-06-10T11:12:26.257Z,21.13
2018-06-10T11:15:00.520Z,18.93
2018-06-10T11:17:34.718Z,21.63
2018-06-10T11:20:09.014Z,26.37
2018-06-10T11:22:43.483Z,27.30
2018-06-10T11:25:17.871Z,21.57
2018-06-10T11:27:52.235Z,20.87
2018-06-10T11:30:27.135Z,23.67
2018-06-10T11:33:01.959Z,27.23
2018-06-10T11:35:36.413Z,24.83
2018-06-10T11:38:10.637Z,21.30
2018-06-10T11:40:45.176Z,23.97
2018-06-10T11:43:19.487Z,24.30
2018-06-10T11:45:53.849Z,25.03
2018-06-10T11:48:28.155Z,22.77
2018-06-10T11:51:02.438Z,22.33
2018-06-10T11:53:36.762Z,23.50
2018-06-10T11:56:11.077Z,23.20
2018-06-10T11:58:45.491Z,21.50
2018-06-10T12:01:19.706Z,19.60
2018-06-10T12:03:54.149Z,18.07
2018-06-10T12:06:28.327Z,20.40
2018-06-10T12:09:02.490Z,17.87
2018-06-10T12:11:36.796Z,18.33
2018-06-10T12:14:11.112Z,21.03
2018-06-10T12:16:45.462Z,19.50
2018-06-10T12:19:19.651Z,19.87
2018-06-10T12:21:53.955Z,18.90
2018-06-10T12:24:28.332Z,17.47
2018-06-10T12:27:02.647Z,19.33
2018-06-10T12:29:37.019Z,19.73
2018-06-10T12:32:11.182Z,18.83
2018-06-10T12:34:45.550Z,16.70
2018-06-10T12:37:19.807Z,17.60
2018-06-10T12:39:54.218Z,17.80
2018-06-10T12:42:28.680Z,21.43
2018-06-10T12:45:03.092Z,16.70
2018-06-10T12:47:37.274Z,20.03
2018-06-10T12:50:11.502Z,22.90
2018-06-10T12:52:45.699Z,21.87
2018-06-10T12:55:19.914Z,21.20
2018-06-10T12:57:54.170Z,20.70
2018-06-10T13:00:28.439Z,22.93
2018-06-10T13:03:02.747Z,23.67
2018-06-10T13:05:37.181Z,26.70
2018-06-10T13:08:11.314Z,23.53
2018-06-10T13:10:45.626Z,23.27
2018-06-10T13:13:19.873Z,25.20
2018-06-10T13:15:54.284Z,24.83
2018-06-10T13:18:28.526Z,27.30
2018-06-10T13:21:02.855Z,25.53
2018-06-10T13:23:37.142Z,26.73
2018-06-10T13:26:11.460Z,27.60
2018-06-10T13:28:45.675Z,26.70
2018-06-10T13:31:19.815Z,26.67
2018-06-10T13:33:54.182Z,26.77
2018-06-10T13:36:28.511Z,28.67
2018-06-10T13:39:02.852Z,33.87
2018-06-10T13:41:37.201Z,29.87
2018-06-10T13:44:11.426Z,31.00
2018-06-10T13:46:45.597Z,27.03
2018-06-10T13:49:19.878Z,26.37
2018-06-10T13:51:54.339Z,28.60
2018-06-10T13:54:28.726Z,29.60
2018-06-10T13:57:03.047Z,28.00
2018-06-10T13:59:37.568Z,28.77
2018-06-10T14:02:12.046Z,26.23
2018-06-10T14:04:46.399Z,24.07
2018-06-10T14:07:20.702Z,21.10
2018-06-10T14:09:55.116Z,22.40
2018-06-10T14:12:29.462Z,20.43
2018-06-10T14:15:03.792Z,20.93
2018-06-10T14:17:38.463Z,19.40
2018-06-10T14:20:12.627Z,19.07
2018-06-10T14:22:47.228Z,21.33
2018-06-10T14:25:21.563Z,18.97
2018-06-10T14:27:55.878Z,20.53
2018-06-10T14:30:30.281Z,23.67
2018-06-10T14:33:04.604Z,22.67
2018-06-10T14:35:38.883Z,24.10
2018-06-10T14:38:13.261Z,19.67
2018-06-10T14:40:47.654Z,16.90
2018-06-10T14:43:21.989Z,18.87
2018-06-10T14:45:56.134Z,23.73
2018-06-10T14:48:30.578Z,19.50
2018-06-10T14:51:04.790Z,18.90
2018-06-10T14:53:40.090Z,18.37
2018-06-10T14:56:14.278Z,19.80
2018-06-10T14:58:48.586Z,18.27
2018-06-10T15:01:22.931Z,18.57
2018-06-10T15:03:57.272Z,17.87
2018-06-10T15:06:31.966Z,20.60
2018-06-10T15:09:08.265Z,18.43
2018-06-10T15:11:42.558Z,16.83
2018-06-10T15:14:17.064Z,20.33
2018-06-10T15:16:51.458Z,19.13
2018-06-10T15:19:25.733Z,19.77
2018-06-10T15:21:59.966Z,19.83
2018-06-10T15:24:34.264Z,18.47
2018-06-10T15:27:08.480Z,19.63
2018-06-10T15:29:42.819Z,20.33
2018-06-10T15:32:17.014Z,19.67
2018-06-10T15:34:51.282Z,18.43
2018-06-10T15:37:25.682Z,19.07
2018-06-10T15:39:59.773Z,18.70
2018-06-10T15:42:34.203Z,16.93
2018-06-10T15:45:08.409Z,20.17
2018-06-10T15:47:42.852Z,17.47
2018-06-10T15:50:17.183Z,20.03
2018-06-10T15:52:52.085Z,20.93
2018-06-10T15:55:26.419Z,20.70
2018-06-10T15:58:00.636Z,18.20
2018-06-10T16:00:34.796Z,18.03
2018-06-10T16:03:09.099Z,19.43
2018-06-10T16:05:43.427Z,23.23
2018-06-10T16:08:17.881Z,24.93
2018-06-10T16:10:52.332Z,20.33
2018-06-10T16:13:26.542Z,24.73
2018-06-10T16:16:00.782Z,18.80
2018-06-10T16:18:35.098Z,16.90
2018-06-10T16:21:09.399Z,19.00
2018-06-10T16:23:44.038Z,16.53
2018-06-10T16:26:18.438Z,17.20
2018-06-10T16:28:52.720Z,19.10
2018-06-10T16:31:27.022Z,14.53
2018-06-10T16:34:01.620Z,16.57
2018-06-10T16:36:35.876Z,16.33
2018-06-10T16:39:10.190Z,14.47
2018-06-10T16:41:44.520Z,15.60
2018-06-10T16:44:18.621Z,20.60
2018-06-10T16:46:53.338Z,16.77
2018-06-10T16:49:27.546Z,20.63
2018-06-10T16:52:02.017Z,18.70
2018-06-10T16:54:36.208Z,16.27
2018-06-10T16:57:10.569Z,15.03
2018-06-10T16:59:44.714Z,18.77
2018-06-10T17:02:19.062Z,18.73
2018-06-10T17:04:53.409Z,16.23
2018-06-10T17:07:27.646Z,16.90
2018-06-10T17:10:01.992Z,15.87
2018-06-10T17:12:36.382Z,17.67
2018-06-10T17:15:10.620Z,15.27
2018-06-10T17:17:44.892Z,16.10
2018-06-10T17:20:19.198Z,12.87
2018-06-10T17:22:53.397Z,19.73
2018-06-10T17:25:28.510Z,18.53
2018-06-10T17:28:02.861Z,22.37
2018-06-10T17:30:37.183Z,14.50
2018-06-10T17:33:11.471Z,17.53
2018-06-10T17:35:45.775Z,12.93
2018-06-10T17:38:19.930Z,16.47
2018-06-10T17:40:54.299Z,13.20
2018-06-10T17:43:28.617Z,14.73
2018-06-10T17:46:02.852Z,15.60
2018-06-10T17:48:37.162Z,15.17
2018-06-10T17:51:11.420Z,11.80
2018-06-10T17:53:45.741Z,11.67
2018-06-10T17:56:20.113Z,11.23
2018-06-10T17:58:54.399Z,12.80
2018-06-10T18:01:28.814Z,14.00
2018-06-10T18:04:03.051Z,13.47
2018-06-10T18:06:37.334Z,11.93
2018-06-10T18:09:11.704Z,12.83
2018-06-10T18:11:45.991Z,10.60
2018-06-10T18:14:20.271Z,11.37
2018-06-10T18:16:54.551Z,10.67
2018-06-10T18:19:28.823Z,9.93
2018-06-10T18:22:03.302Z,14.50
2018-06-10T18:24:37.538Z,9.93
2018-06-10T18:27:11.878Z,11.50
2018-06-10T18:29:46.115Z,12.37
2018-06-10T18:32:20.347Z,12.93
2018-06-10T18:34:54.606Z,12.70
2018-06-10T18:37:28.898Z,11.20
2018-06-10T18:40:03.202Z,9.30
2018-06-10T18:42:37.520Z,15.63
2018-06-10T18:45:11.701Z,16.13
2018-06-10T18:47:45.954Z,11.67
2018-06-10T18:50:20.071Z,9.93
2018-06-10T18:52:54.366Z,11.50
2018-06-10T18:55:28.598Z,10.47
2018-06-10T18:58:02.890Z,12.90
2018-06-10T19:00:37.130Z,13.13
2018-06-10T19:03:11.413Z,14.83
2018-06-10T19:05:45.699Z,14.93
2018-06-10T19:08:20.151Z,13.27
2018-06-10T19:10:54.415Z,18.20
2018-06-10T19:13:28.656Z,16.10
2018-06-10T19:16:02.880Z,12.50
2018-06-10T19:18:37.410Z,13.60
2018-06-10T19:21:11.618Z,17.43
2018-06-10T19:23:45.983Z,17.80
2018-06-10T19:26:20.198Z,17.07
2018-06-10T19:28:54.547Z,13.23
2018-06-10T19:31:28.846Z,18.60
2018-06-10T19:34:04.811Z,12.53
2018-06-10T19:36:39.071Z,14.93
2018-06-10T19:39:13.318Z,15.00
2018-06-10T19:41:49.322Z,12.43
2018-06-10T19:44:23.669Z,15.27
2018-06-10T19:46:58.014Z,17.23
2018-06-10T19:49:32.227Z,18.90
2018-06-10T19:52:06.395Z,14.87
2018-06-10T19:54:40.778Z,14.20
2018-06-10T19:57:15.048Z,17.00
2018-06-10T19:59:49.590Z,15.73
2018-06-10T20:02:23.963Z,16.33
2018-06-10T20:04:58.350Z,16.00
2018-06-10T20:07:32.592Z,18.53
2018-06-10T20:10:07.043Z,17.33
2018-06-10T20:12:41.371Z,17.00
2018-06-10T20:15:15.659Z,18.33
2018-06-10T20:17:49.864Z,19.77
2018-06-10T20:20:24.071Z,20.10
2018-06-10T20:22:58.362Z,17.20
2018-06-10T20:25:32.675Z,14.97
2018-06-10T20:28:06.927Z,16.10
2018-06-10T20:30:41.293Z,18.00
2018-06-10T20:33:15.574Z,15.07
2018-06-10T20:35:49.885Z,16.60
2018-06-10T20:38:24.301Z,22.37
2018-06-10T20:40:58.750Z,15.73
2018-06-10T20:43:32.789Z,23.53
2018-06-10T20:46:07.005Z,18.20
2018-06-10T20:48:41.377Z,21.17
2018-06-10T20:51:15.602Z,15.70
2018-06-10T20:53:49.741Z,19.43
2018-06-10T20:56:24.097Z,19.53
2018-06-10T20:58:58.438Z,20.17
2018-06-10T21:01:32.766Z,17.10
2018-06-10T21:04:07.027Z,16.93
2018-06-10T21:06:41.157Z,15.03
2018-06-10T21:09:16.590Z,19.97
2018-06-10T21:11:50.979Z,18.83
2018-06-10T21:14:25.098Z,19.77
2018-06-10T21:16:59.436Z,21.20
2018-06-10T21:19:33.732Z,18.93
2018-06-10T21:22:07.986Z,18.57
2018-06-10T21:24:42.143Z,21.23
2018-06-10T21:27:16.578Z,18.63
2018-06-10T21:29:50.999Z,17.93
2018-06-10T21:32:25.357Z,22.50
2018-06-10T21:34:59.566Z,17.10
2018-06-10T21:37:33.781Z,17.03
2018-06-10T21:40:08.225Z,16.33
2018-06-10T21:42:42.491Z,21.97
2018-06-10T21:45:16.780Z,19.17
2018-06-10T21:47:51.106Z,18.80
2018-06-10T21:50:25.367Z,20.10
2018-06-10T21:52:59.614Z,22.83
2018-06-10T21:55:33.983Z,22.50
2018-06-10T21:58:08.306Z,18.67
2018-06-10T22:00:42.745Z,23.37
2018-06-10T22:03:16.979Z,20.07
2018-06-10T22:05:51.295Z,19.27
2018-06-10T22:08:25.584Z,18.37
2018-06-10T22:10:59.835Z,19.30
2018-06-10T22:13:34.300Z,17.47
2018-06-10T22:16:08.763Z,20.47
2018-06-10T22:18:43.010Z,17.87
2018-06-10T22:21:17.321Z,18.27
2018-06-10T22:23:51.663Z,18.17
2018-06-10T22:26:26.022Z,21.00
2018-06-10T22:29:00.421Z,16.30
2018-06-10T22:31:34.844Z,19.57
2018-06-10T22:34:09.066Z,17.73
2018-06-10T22:36:43.412Z,19.03
2018-06-10T22:39:17.727Z,20.90
2018-06-10T22:41:52.007Z,18.80
2018-06-10T22:44:26.235Z,20.33
2018-06-10T22:47:00.382Z,20.67
2018-06-10T22:49:34.594Z,23.67
2018-06-10T22:52:08.863Z,19.83
2018-06-10T22:54:46.293Z,18.80
2018-06-10T22:57:20.546Z,19.97
2018-06-10T22:59:54.875Z,22.93
2018-06-10T23:02:29.287Z,20.47
2018-06-10T23:05:03.721Z,21.60
2018-06-10T23:07:38.098Z,18.23
2018-06-10T23:10:12.378Z,18.60
2018-06-10T23:12:46.705Z,19.00
2018-06-10T23:15:21.057Z,18.13
2018-06-10T23:17:55.349Z,16.17
2018-06-10T23:20:29.673Z,20.10
2018-06-10T23:23:03.991Z,20.87
2018-06-10T23:25:38.418Z,22.53
2018-06-10T23:28:12.533Z,19.03
2018-06-10T23:30:46.723Z,17.60
2018-06-10T23:33:20.838Z,21.70
2018-06-10T23:35:55.063Z,18.07
2018-06-10T23:38:29.270Z,19.50
2018-06-10T23:41:03.561Z,19.17
2018-06-10T23:43:37.926Z,22.20
2018-06-10T23:46:12.306Z,20.57
2018-06-10T23:48:46.726Z,16.23
2018-06-10T23:51:20.907Z,19.07
2018-06-10T23:53:55.185Z,21.23
2018-06-10T23:56:29.602Z,20.60
2018-06-10T23:59:03.901Z,20.67
